Decoded Metar for GMFF (FEZ in MOROCCO) (IATA:FEZ) | Meteo·Mobile Aviation Weather
aviador You're here:

GMFF Decoded Metar

FEZ in MOROCCO
Report Time2019-01-20 21:00:00
UTC Time2019-01-20 21:16:09
Flight Rules mvfr MVFR
Wind260° at 06 kt
W.Decomp.*RWY 27: 5.9 kt HW 0.9 kt LCW
W.Rank260° ranks 12
Current wind is below 260° avg. (7.9)
Visibility5000 m
Phenomena:Rain
Clouds:Scattered 011 Hf
Broken 023 Hf
Broken 080 Hf
Ceiling2,300 ft
Temp09°C (ISA -2)
Dew Point09°C (100% RH)
AAT6.6°C
QNH1021 hPa
Density Alt1,526 ft
Elevation1,900 ft
Report Wrong Elevation
Raw Report
GMFF 202100Z 26006KT 5000 RA SCT011 BKN023 BKN080 09/09 Q1021
NOSIG=

Extra information for GMFF:More info

Metar Taf Metar & Taf Last 4 Metars F.Rules Stats Wind Profile Meteogram Temp Stats Airport Information Weather charts Add Link Nearby VenuesMetar ALERT Operation Metar Decoded Social comments